createdAt,value
2022-10-02T00:00:09.206Z,100191.13
2022-10-02T00:02:46.105Z,100023.16
2022-10-02T00:05:32.462Z,100089.03
2022-10-02T00:08:24.243Z,100148.81
2022-10-02T00:11:00.836Z,100114.22
2022-10-02T00:13:44.076Z,100328.59
2022-10-02T00:16:32.811Z,100173.00
2022-10-02T00:19:02.089Z,100147.41
2022-10-02T00:22:05.961Z,100309.06
2022-10-02T00:24:44.325Z,100312.28
2022-10-02T00:27:39.726Z,100311.06
2022-10-02T00:30:16.026Z,100168.09
2022-10-02T00:33:13.145Z,100322.34
2022-10-02T00:36:17.476Z,100318.28
2022-10-02T00:39:03.025Z,100322.88
2022-10-02T00:42:22.788Z,100330.13
2022-10-02T00:45:41.530Z,100291.09
2022-10-02T00:48:36.904Z,100285.34
2022-10-02T00:51:19.061Z,100334.28
2022-10-02T00:54:04.686Z,100281.44
2022-10-02T00:56:48.004Z,100194.41
2022-10-02T01:00:00.999Z,100275.31
2022-10-02T01:03:04.648Z,100018.97
2022-10-02T01:05:37.027Z,100286.91
2022-10-02T01:08:11.493Z,100224.56
2022-10-02T01:10:41.414Z,100322.69
2022-10-02T01:13:10.353Z,100267.81
2022-10-02T01:15:52.902Z,100327.22
2022-10-02T01:18:23.391Z,100348.28
2022-10-02T01:21:09.132Z,100064.91
2022-10-02T01:23:56.462Z,100142.44
2022-10-02T01:26:28.757Z,100355.47
2022-10-02T01:28:57.327Z,100115.34
2022-10-02T01:31:26.512Z,100200.72
2022-10-02T01:33:59.993Z,100247.69
2022-10-02T01:36:36.305Z,100192.97
2022-10-02T01:39:08.340Z,100250.22
2022-10-02T01:41:45.724Z,100373.03
2022-10-02T01:44:16.907Z,100311.34
2022-10-02T01:47:04.468Z,100392.75
2022-10-02T01:49:55.978Z,100336.94
2022-10-02T01:52:51.966Z,100099.13
2022-10-02T01:55:42.229Z,100387.53
2022-10-02T01:58:30.499Z,100388.53
2022-10-02T02:01:17.407Z,100385.00
2022-10-02T02:03:59.344Z,100335.41
2022-10-02T02:06:34.375Z,100391.06
2022-10-02T02:09:15.123Z,100360.69
2022-10-02T02:11:57.470Z,100359.88
2022-10-02T02:14:51.735Z,100381.66
2022-10-02T02:17:37.331Z,100398.25
2022-10-02T02:20:16.500Z,100358.25
2022-10-02T02:22:57.993Z,100063.59
2022-10-02T02:25:31.391Z,100403.91
2022-10-02T02:28:06.206Z,100363.09
2022-10-02T02:30:41.269Z,100331.78
2022-10-02T02:33:19.628Z,100145.69
2022-10-02T02:35:56.207Z,100304.53
2022-10-02T02:38:35.714Z,100270.53
2022-10-02T02:41:14.232Z,100182.59
2022-10-02T02:43:53.252Z,100179.78
2022-10-02T02:46:57.273Z,100263.50
2022-10-02T02:49:38.280Z,100232.94
2022-10-02T02:52:17.956Z,100233.09
2022-10-02T02:55:17.997Z,100093.28
2022-10-02T02:57:55.754Z,100152.25
2022-10-02T03:00:25.986Z,100412.31
2022-10-02T03:02:57.704Z,100089.13
2022-10-02T03:05:29.749Z,100085.56
2022-10-02T03:08:16.534Z,100037.81
2022-10-02T03:11:07.562Z,100396.53
2022-10-02T03:13:58.174Z,100217.50
2022-10-02T03:16:45.908Z,100229.59
2022-10-02T03:19:41.152Z,100424.19
2022-10-02T03:22:29.462Z,100314.28
2022-10-02T03:25:07.077Z,100433.47
2022-10-02T03:27:44.020Z,100428.03
2022-10-02T03:30:24.405Z,100275.34
2022-10-02T03:32:56.322Z,100410.13
2022-10-02T03:35:33.364Z,100429.88
2022-10-02T03:38:10.947Z,100346.53
2022-10-02T03:40:39.507Z,100428.47
2022-10-02T03:43:17.416Z,100407.97
2022-10-02T03:45:51.316Z,100271.59
2022-10-02T03:48:20.288Z,100403.25
2022-10-02T03:50:51.794Z,100301.59
2022-10-02T03:53:37.566Z,100064.84
2022-10-02T03:56:14.691Z,100178.19
2022-10-02T03:58:49.770Z,100389.63
2022-10-02T04:01:26.813Z,100307.22
2022-10-02T04:04:07.540Z,100221.19
2022-10-02T04:06:47.402Z,100226.03
2022-10-02T04:09:35.001Z,100236.78
2022-10-02T04:12:17.753Z,100082.91
2022-10-02T04:15:15.141Z,100292.44
2022-10-02T04:17:58.740Z,100223.84
2022-10-02T04:20:51.025Z,100269.13
2022-10-02T04:23:27.477Z,100319.56
2022-10-02T04:26:08.395Z,100437.91
2022-10-02T04:29:01.182Z,100224.69
2022-10-02T04:31:32.334Z,100323.78
2022-10-02T04:34:17.512Z,100313.38
2022-10-02T04:37:09.516Z,100229.09
2022-10-02T04:40:10.416Z,100454.19
2022-10-02T04:43:06.370Z,100401.97
2022-10-02T04:46:02.973Z,100356.66
2022-10-02T04:49:06.751Z,100439.69
2022-10-02T04:51:58.785Z,100498.91
2022-10-02T04:55:21.110Z,100465.28
2022-10-02T04:58:35.302Z,100438.25
2022-10-02T05:01:31.532Z,100238.88
2022-10-02T05:04:43.839Z,100483.31
2022-10-02T05:08:07.049Z,100476.06
2022-10-02T05:11:10.495Z,100432.41
2022-10-02T05:14:10.183Z,100410.78
2022-10-02T05:17:02.797Z,100350.88
2022-10-02T05:19:57.549Z,100460.56
2022-10-02T05:23:18.151Z,100363.84
2022-10-02T05:26:28.407Z,100235.75
2022-10-02T05:29:20.849Z,100462.16
2022-10-02T05:32:20.320Z,100272.06
2022-10-02T05:35:26.475Z,100118.16
2022-10-02T05:38:13.714Z,100210.31
2022-10-02T05:41:04.348Z,100143.66
2022-10-02T05:43:46.919Z,100386.34
2022-10-02T05:46:28.390Z,100497.59
2022-10-02T05:49:01.047Z,100329.72
2022-10-02T05:51:50.356Z,100466.91
2022-10-02T05:54:42.659Z,100490.25
2022-10-02T05:57:24.766Z,100486.50
2022-10-02T06:00:16.972Z,100396.66
2022-10-02T06:03:01.300Z,100470.63
2022-10-02T06:05:45.026Z,100229.59
2022-10-02T06:08:21.099Z,100388.72
2022-10-02T06:10:55.959Z,100339.00
2022-10-02T06:13:33.265Z,100457.97
2022-10-02T06:16:14.385Z,100355.06
2022-10-02T06:18:50.301Z,100352.22
2022-10-02T06:21:31.693Z,100490.50
2022-10-02T06:24:05.740Z,100275.19
2022-10-02T06:26:46.501Z,100475.84
2022-10-02T06:29:27.295Z,100457.19
2022-10-02T06:32:11.025Z,100324.22
2022-10-02T06:34:39.516Z,100340.25
2022-10-02T06:37:29.344Z,100491.38
2022-10-02T06:40:21.006Z,100267.91
2022-10-02T06:43:01.616Z,100516.97
2022-10-02T06:45:46.507Z,100495.75
2022-10-02T06:48:30.751Z,100310.22
2022-10-02T06:51:11.516Z,100363.34
2022-10-02T06:54:01.667Z,100405.72
2022-10-02T06:56:46.762Z,100498.72
2022-10-02T06:59:36.879Z,100499.31
2022-10-02T07:02:25.153Z,100281.00
2022-10-02T07:05:49.668Z,100495.22
2022-10-02T07:08:36.392Z,100426.25
2022-10-02T07:11:16.870Z,100433.91
2022-10-02T07:14:08.009Z,100171.91
2022-10-02T07:17:00.265Z,100373.41
2022-10-02T07:20:02.541Z,100274.09
2022-10-02T07:23:01.738Z,100450.63
2022-10-02T07:25:50.863Z,100299.09
2022-10-02T07:28:29.240Z,100497.16
2022-10-02T07:31:05.790Z,100436.09
2022-10-02T07:33:58.214Z,100500.28
2022-10-02T07:36:45.884Z,100475.06
2022-10-02T07:39:36.622Z,100239.44
2022-10-02T07:42:33.856Z,100498.66
2022-10-02T07:45:30.785Z,100500.94
2022-10-02T07:48:34.807Z,100505.31
2022-10-02T07:51:48.159Z,100442.59
2022-10-02T07:54:48.570Z,100506.56
2022-10-02T07:57:31.629Z,100501.88
2022-10-02T08:00:07.893Z,100217.28
2022-10-02T08:02:51.341Z,100237.34
2022-10-02T08:05:25.706Z,100374.59
2022-10-02T08:08:00.301Z,100172.75
2022-10-02T08:10:38.822Z,100396.41
2022-10-02T08:13:16.259Z,100311.19
2022-10-02T08:15:49.409Z,100373.13
2022-10-02T08:18:34.634Z,100519.72
2022-10-02T08:21:09.817Z,100478.53
2022-10-02T08:23:48.545Z,100474.66
2022-10-02T08:26:27.208Z,100373.16
2022-10-02T08:29:07.163Z,100282.22
2022-10-02T08:31:35.859Z,100411.44
2022-10-02T08:34:21.029Z,100207.31
2022-10-02T08:37:51.976Z,100304.44
2022-10-02T08:41:24.432Z,100393.38
2022-10-02T08:44:52.742Z,100519.06
2022-10-02T08:48:06.395Z,100217.03
2022-10-02T08:51:33.342Z,100215.97
2022-10-02T08:55:22.813Z,100486.50
2022-10-02T08:58:47.616Z,100475.09
2022-10-02T09:01:59.717Z,100392.69
2022-10-02T09:05:39.685Z,100455.91
2022-10-02T09:09:10.288Z,100527.53
2022-10-02T09:12:23.514Z,100216.97
2022-10-02T09:14:58.620Z,100449.41
2022-10-02T09:18:16.848Z,100232.25
2022-10-02T09:21:16.608Z,100349.75
2022-10-02T09:24:46.722Z,100347.19
2022-10-02T09:28:18.120Z,100468.47
2022-10-02T09:31:41.165Z,100533.13
2022-10-02T09:35:16.204Z,100533.84
2022-10-02T09:38:44.880Z,100466.38
2022-10-02T09:41:59.246Z,100530.75
2022-10-02T09:45:22.517Z,100407.66
2022-10-02T09:48:48.960Z,100519.41
2022-10-02T09:52:05.001Z,100505.31
2022-10-02T09:55:22.186Z,100202.84
2022-10-02T09:58:37.719Z,100469.69
2022-10-02T10:01:50.988Z,100301.88
2022-10-02T10:05:13.181Z,100436.78
2022-10-02T10:08:31.906Z,100515.78
2022-10-02T10:11:39.329Z,100491.03
2022-10-02T10:14:41.559Z,100505.38
2022-10-02T10:18:17.201Z,100506.91
2022-10-02T10:21:42.795Z,100368.56
2022-10-02T10:25:13.374Z,100214.25
2022-10-02T10:28:25.600Z,100501.88
2022-10-02T10:31:51.172Z,100497.09
2022-10-02T10:35:50.044Z,100218.34
2022-10-02T10:38:53.635Z,100227.50
2022-10-02T10:42:18.182Z,100421.41
2022-10-02T10:45:38.186Z,100160.53
2022-10-02T10:48:36.381Z,100492.22
2022-10-02T10:51:36.314Z,100374.13
2022-10-02T10:54:48.717Z,100407.88
2022-10-02T10:57:42.382Z,100195.97
2022-10-02T11:00:21.237Z,100462.97
2022-10-02T11:03:34.060Z,100338.50
2022-10-02T11:06:58.514Z,100372.91
2022-10-02T11:10:05.282Z,100411.25
2022-10-02T11:13:14.277Z,100463.88
2022-10-02T11:16:37.685Z,100379.25
2022-10-02T11:19:43.452Z,100144.91
2022-10-02T11:22:56.285Z,100369.78
2022-10-02T11:25:49.025Z,100309.13
2022-10-02T11:29:02.644Z,100173.53
2022-10-02T11:31:59.063Z,100150.91
2022-10-02T11:35:06.792Z,100242.72
2022-10-02T11:38:24.028Z,100418.09
2022-10-02T11:51:24.576Z,100440.53
2022-10-02T11:54:22.258Z,100195.44
2022-10-02T11:57:24.187Z,100206.19
2022-10-02T12:00:16.236Z,100329.06
2022-10-02T12:03:03.515Z,100247.69
2022-10-02T12:06:02.972Z,100348.28
2022-10-02T12:09:20.048Z,100077.75
2022-10-02T12:12:17.145Z,100277.34
2022-10-02T12:20:07.011Z,100054.38
2022-10-02T12:23:37.115Z,100323.59
2022-10-02T12:27:09.857Z,100400.22
2022-10-02T12:30:04.330Z,100133.50
2022-10-02T12:33:20.730Z,100118.78
2022-10-02T12:36:26.964Z,100039.28
2022-10-02T12:39:28.499Z,100263.66
2022-10-02T12:43:13.195Z,100405.31
2022-10-02T12:46:25.679Z,100345.78
2022-10-02T12:49:45.737Z,100374.53
2022-10-02T12:53:09.242Z,100422.19
2022-10-02T12:56:37.166Z,100416.47
2022-10-02T12:59:18.526Z,100417.56
2022-10-02T13:02:49.284Z,100418.47
2022-10-02T13:06:14.926Z,100357.91
2022-10-02T13:09:13.731Z,100400.44
2022-10-02T13:12:06.513Z,100367.81
2022-10-02T13:15:12.022Z,100403.75
2022-10-02T13:17:53.331Z,100400.28
2022-10-02T13:20:39.149Z,100402.00
2022-10-02T13:23:26.100Z,100399.13
2022-10-02T13:26:12.772Z,100245.22
2022-10-02T13:29:20.184Z,100382.56
2022-10-02T13:32:17.153Z,100341.66
2022-10-02T13:35:07.273Z,100372.19
2022-10-02T13:37:58.627Z,100415.53
2022-10-02T13:40:36.295Z,100407.34
2022-10-02T13:43:34.654Z,100357.84
2022-10-02T13:46:22.765Z,100407.59
2022-10-02T13:49:10.090Z,100183.44
2022-10-02T13:51:59.741Z,100286.09
2022-10-02T13:55:04.859Z,100408.88
2022-10-02T13:57:54.014Z,100277.88
2022-10-02T14:01:13.235Z,100421.38
2022-10-02T14:04:38.863Z,100440.88
2022-10-02T14:07:29.104Z,100288.03
2022-10-02T14:10:11.114Z,100419.28
2022-10-02T14:12:55.270Z,100403.41
2022-10-02T14:15:42.754Z,100328.53
2022-10-02T14:18:42.793Z,100375.75
2022-10-02T14:21:31.144Z,100103.97
2022-10-02T14:24:51.384Z,100334.97
2022-10-02T14:28:19.836Z,100420.56
2022-10-02T14:31:13.099Z,100314.09
2022-10-02T14:34:16.146Z,100372.91
2022-10-02T14:37:17.972Z,100427.09
2022-10-02T14:39:53.260Z,100364.88
2022-10-02T14:42:57.594Z,100378.03
2022-10-02T14:46:04.442Z,100414.13
2022-10-02T14:49:15.003Z,100373.34
2022-10-02T14:52:25.807Z,100421.56
2022-10-02T14:55:34.422Z,100418.44
2022-10-02T14:58:40.211Z,100372.31
2022-10-02T15:01:22.609Z,100419.09
2022-10-02T15:04:25.133Z,100440.19
2022-10-02T15:07:11.624Z,100276.06
2022-10-02T15:09:59.149Z,100422.03
2022-10-02T15:12:45.509Z,100336.44
2022-10-02T15:15:22.210Z,100296.97
2022-10-02T15:18:20.267Z,100207.50
2022-10-02T15:21:06.674Z,100472.44
2022-10-02T15:23:46.421Z,100478.84
2022-10-02T15:26:37.807Z,100151.69
2022-10-02T15:29:27.005Z,100476.38
2022-10-02T15:32:43.121Z,100353.84
2022-10-02T15:35:28.703Z,100312.56
2022-10-02T15:38:34.640Z,100460.81
2022-10-02T15:41:40.160Z,100273.13
2022-10-02T15:44:39.478Z,100225.94
2022-10-02T15:47:35.834Z,100388.72
2022-10-02T15:50:26.260Z,100172.03
2022-10-02T15:57:49.001Z,100476.69
2022-10-02T16:00:20.452Z,100495.47
2022-10-02T16:03:17.153Z,100396.63
2022-10-02T16:05:55.345Z,100444.88
2022-10-02T16:09:05.858Z,100413.91
2022-10-02T16:12:18.658Z,100499.38
2022-10-02T16:15:01.388Z,100505.97
2022-10-02T16:18:08.598Z,100508.06
2022-10-02T16:21:08.066Z,100441.13
2022-10-02T16:24:31.038Z,100462.50
2022-10-02T16:27:46.304Z,100441.88
2022-10-02T16:30:17.324Z,100506.44
2022-10-02T16:33:17.153Z,100450.06
2022-10-02T16:36:41.347Z,100285.03
2022-10-02T16:39:51.957Z,100415.84
2022-10-02T16:42:42.613Z,100324.88
2022-10-02T16:45:42.938Z,100433.88
2022-10-02T16:48:18.219Z,100491.53
2022-10-02T16:51:11.549Z,100488.34
2022-10-02T16:53:51.188Z,100525.34
2022-10-02T16:56:32.237Z,100481.09
2022-10-02T16:59:12.885Z,100532.72
2022-10-02T17:02:15.957Z,100531.91
2022-10-02T17:04:52.291Z,100536.41
2022-10-02T17:07:37.241Z,100541.72
2022-10-02T17:10:23.680Z,100544.22
2022-10-02T17:13:07.133Z,100513.31
2022-10-02T17:15:46.385Z,100543.81
2022-10-02T17:18:35.437Z,100517.06
2022-10-02T17:21:16.035Z,100558.75
2022-10-02T17:24:00.576Z,100530.81
2022-10-02T17:26:37.770Z,100544.53
2022-10-02T17:29:20.289Z,100556.81
2022-10-02T17:31:54.180Z,100555.81
2022-10-02T17:34:26.567Z,100515.69
2022-10-02T17:37:07.816Z,100560.13
2022-10-02T17:40:05.095Z,100575.09
2022-10-02T17:42:50.179Z,100552.50
2022-10-02T17:45:37.530Z,100577.72
2022-10-02T17:48:39.828Z,100609.47
2022-10-02T17:51:51.159Z,100563.25
2022-10-02T17:55:14.046Z,100554.66
2022-10-02T17:58:08.111Z,100596.47
2022-10-02T18:00:53.003Z,100590.28
2022-10-02T18:03:48.100Z,100608.03
2022-10-02T18:06:32.454Z,100411.97
2022-10-02T18:09:46.050Z,100588.91
2022-10-02T18:13:04.039Z,100613.53
2022-10-02T18:15:56.723Z,100615.44
2022-10-02T18:18:38.950Z,100616.50
2022-10-02T18:21:32.949Z,100592.22
2022-10-02T18:24:32.933Z,100621.00
2022-10-02T18:27:37.048Z,100617.69
2022-10-02T18:30:17.343Z,100628.94
2022-10-02T18:33:27.013Z,100637.00
2022-10-02T18:36:19.907Z,100633.38
2022-10-02T18:39:01.364Z,100635.91
2022-10-02T18:41:55.606Z,100600.06
2022-10-02T18:44:58.763Z,100607.94
2022-10-02T18:47:45.481Z,100642.78
2022-10-02T18:50:48.971Z,100607.81
2022-10-02T18:53:46.069Z,100642.59
2022-10-02T18:56:22.212Z,100648.75
2022-10-02T18:59:13.815Z,100627.84
2022-10-02T19:02:03.141Z,100657.56
2022-10-02T19:05:10.419Z,100662.66
2022-10-02T19:07:47.713Z,100667.00
2022-10-02T19:10:44.966Z,100661.88
2022-10-02T19:13:22.289Z,100680.31
2022-10-02T19:15:53.475Z,100673.88
2022-10-02T19:18:27.310Z,100691.50
2022-10-02T19:21:03.150Z,100679.13
2022-10-02T19:23:40.357Z,100592.09
2022-10-02T19:26:20.141Z,100686.44
2022-10-02T19:29:07.076Z,100686.44
2022-10-02T19:31:52.860Z,100693.47
2022-10-02T19:34:27.749Z,100692.63
2022-10-02T19:37:05.927Z,100671.00
2022-10-02T19:39:41.498Z,100665.81
2022-10-02T19:42:18.021Z,100700.84
2022-10-02T19:44:53.249Z,100704.44
2022-10-02T19:47:30.002Z,100708.00
2022-10-02T19:50:02.877Z,100690.66
2022-10-02T19:52:44.111Z,100708.19
2022-10-02T19:55:24.961Z,100710.91
2022-10-02T19:57:58.240Z,100692.56
2022-10-02T20:00:27.116Z,100713.47
2022-10-02T20:03:01.116Z,100706.50
2022-10-02T20:05:34.912Z,100674.22
2022-10-02T20:08:14.428Z,100716.94
2022-10-02T20:10:58.071Z,100720.41
2022-10-02T20:13:37.321Z,100724.88
2022-10-02T20:16:35.702Z,100726.56
2022-10-02T20:19:05.638Z,100736.25
2022-10-02T20:21:41.310Z,100685.53
2022-10-02T20:24:21.188Z,100735.22
2022-10-02T20:26:56.753Z,100561.63
2022-10-02T20:29:34.364Z,100703.13
2022-10-02T20:32:09.496Z,100422.34
2022-10-02T20:34:44.979Z,100641.31
2022-10-02T20:37:19.922Z,100675.22
2022-10-02T20:39:58.856Z,100753.81
2022-10-02T20:42:41.824Z,100730.16
2022-10-02T20:45:14.708Z,100756.44
2022-10-02T20:48:56.043Z,100747.63
2022-10-02T20:52:08.135Z,100696.97
2022-10-02T20:54:59.261Z,100761.59
2022-10-02T20:58:34.013Z,100752.13
2022-10-02T21:01:19.914Z,100772.31
2022-10-02T21:04:27.532Z,100771.34
2022-10-02T21:07:37.592Z,100758.28
2022-10-02T21:10:48.981Z,100778.38
2022-10-02T21:14:09.310Z,100781.97
2022-10-02T21:17:15.077Z,100777.50
2022-10-02T21:20:52.506Z,100786.22
2022-10-02T21:24:25.634Z,100785.47
2022-10-02T21:27:47.927Z,100789.81
2022-10-02T21:30:19.890Z,100791.75
2022-10-02T21:33:12.795Z,100605.84
2022-10-02T21:35:55.211Z,100803.25
2022-10-02T21:39:03.900Z,100765.72
2022-10-02T21:42:08.846Z,100810.22
2022-10-02T21:45:58.477Z,100797.06
2022-10-02T21:49:10.065Z,100799.72
2022-10-02T21:52:26.380Z,100764.81
2022-10-02T21:55:52.755Z,100802.47
2022-10-02T21:59:09.037Z,100773.75
2022-10-02T22:02:22.494Z,100803.47
2022-10-02T22:05:36.037Z,100806.91
2022-10-02T22:08:21.125Z,100813.91
2022-10-02T22:11:02.884Z,100810.41
2022-10-02T22:13:38.603Z,100767.75
2022-10-02T22:16:26.185Z,100819.34
2022-10-02T22:19:03.706Z,100785.19
2022-10-02T22:22:04.087Z,100784.34
2022-10-02T22:24:55.728Z,100828.03
2022-10-02T22:27:49.168Z,100825.44
2022-10-02T22:30:26.673Z,100786.19
2022-10-02T22:33:14.699Z,100834.38
2022-10-02T22:36:14.190Z,100828.16
2022-10-02T22:38:51.818Z,100824.75
2022-10-02T22:41:29.407Z,100812.50
2022-10-02T22:44:06.276Z,100831.66
2022-10-02T22:46:47.855Z,100797.75
2022-10-02T22:49:27.186Z,100834.50
2022-10-02T22:52:07.942Z,100835.44
2022-10-02T22:54:47.749Z,100830.09
2022-10-02T22:57:30.391Z,100798.75
2022-10-02T23:00:12.206Z,100838.06
2022-10-02T23:02:51.587Z,100843.28
2022-10-02T23:05:31.443Z,100811.09
2022-10-02T23:08:15.020Z,100842.59
2022-10-02T23:10:50.983Z,100646.88
2022-10-02T23:13:30.609Z,100807.69
2022-10-02T23:16:06.084Z,100843.44
2022-10-02T23:18:43.620Z,100843.44
2022-10-02T23:21:33.006Z,100838.28
2022-10-02T23:24:19.506Z,100771.81
2022-10-02T23:26:53.986Z,100816.44
2022-10-02T23:29:39.466Z,100854.94
2022-10-02T23:32:25.018Z,100856.72
2022-10-02T23:35:04.248Z,100860.28
2022-10-02T23:37:46.224Z,100859.47
2022-10-02T23:40:46.809Z,100862.19
2022-10-02T23:43:26.041Z,100872.69
2022-10-02T23:46:05.246Z,100881.56
2022-10-02T23:48:34.216Z,100876.38
2022-10-02T23:51:18.217Z,100872.00
2022-10-02T23:54:05.958Z,100858.03
2022-10-02T23:57:18.458Z,100882.56
